createdAt,value
2018-12-10T00:00:44.847Z,98.52
2018-12-10T00:06:06.272Z,99.06
2018-12-10T00:11:17.552Z,98.79
2018-12-10T00:16:28.567Z,98.61
2018-12-10T00:21:39.604Z,98.93
2018-12-10T00:26:50.711Z,98.56
2018-12-10T00:32:02.385Z,95.39
2018-12-10T00:37:13.926Z,95.26
2018-12-10T00:42:25.024Z,95.27
2018-12-10T00:47:36.107Z,96.23
2018-12-10T00:52:47.982Z,96.88
2018-12-10T00:57:59.090Z,97.64
2018-12-10T01:03:10.221Z,98.71
2018-12-10T01:08:22.289Z,98.49
2018-12-10T01:13:34.405Z,98.41
2018-12-10T01:18:45.487Z,98.09
2018-12-10T01:21:14.945Z,97.27
2018-12-10T01:26:26.439Z,97.25
2018-12-10T01:31:37.649Z,97.43
2018-12-10T01:36:53.612Z,97.34
2018-12-10T01:42:04.966Z,96.38
2018-12-10T01:47:15.986Z,96.51
2018-12-10T01:52:27.115Z,96.71
2018-12-10T01:57:38.243Z,96.58
2018-12-10T02:02:50.404Z,95.74
2018-12-10T02:08:01.418Z,96.11
2018-12-10T02:13:12.563Z,96.78
2018-12-10T02:18:23.655Z,96.44
2018-12-10T02:23:34.780Z,96.36
2018-12-10T02:28:51.342Z,95.45
2018-12-10T02:34:02.271Z,94.69
2018-12-10T02:39:13.385Z,94.35
2018-12-10T02:44:24.423Z,95.27
2018-12-10T02:49:35.532Z,95.09
2018-12-10T02:54:47.755Z,95.66
2018-12-10T02:59:59.677Z,97.42
2018-12-10T03:05:12.108Z,98.15
2018-12-10T03:10:24.413Z,98.74
2018-12-10T03:15:35.787Z,99.04
2018-12-10T03:20:47.949Z,99.61
2018-12-10T03:26:00.261Z,99.55
2018-12-10T03:31:13.378Z,98.91
2018-12-10T03:36:21.324Z,98.57
2018-12-10T03:41:34.724Z,98.59
2018-12-10T03:46:45.954Z,99.45
2018-12-10T03:51:57.962Z,99.20
2018-12-10T03:57:08.934Z,100.00
2018-12-10T04:02:22.942Z,100.00
2018-12-10T04:07:34.579Z,100.00
2018-12-10T04:12:50.857Z,100.00
2018-12-10T04:18:02.685Z,99.38
2018-12-10T04:23:14.726Z,97.15
2018-12-10T04:28:27.792Z,98.00
2018-12-10T04:33:39.914Z,98.41
2018-12-10T04:38:50.985Z,97.44
2018-12-10T04:44:03.094Z,98.01
2018-12-10T04:49:14.154Z,97.13
2018-12-10T04:54:26.099Z,97.81
2018-12-10T04:59:37.296Z,98.36
2018-12-10T05:04:49.305Z,98.76
2018-12-10T05:10:01.669Z,98.40
2018-12-10T05:15:13.283Z,98.45
2018-12-10T05:20:25.204Z,98.34
2018-12-10T05:25:36.247Z,99.22
2018-12-10T05:30:48.276Z,98.50
2018-12-10T05:35:59.241Z,98.84
2018-12-10T05:41:13.322Z,98.17
2018-12-10T05:46:24.421Z,97.99
2018-12-10T05:51:37.506Z,98.43
2018-12-10T05:56:48.454Z,99.20
2018-12-10T05:59:30.603Z,99.71
2018-12-10T06:04:42.543Z,100.00
2018-12-10T06:09:54.727Z,100.00
2018-12-10T06:15:05.997Z,100.00
2018-12-10T06:20:18.213Z,100.00
2018-12-10T06:25:29.139Z,100.00
2018-12-10T06:30:41.394Z,100.00
2018-12-10T06:35:52.274Z,100.00
2018-12-10T06:41:04.574Z,100.00
2018-12-10T06:46:15.469Z,100.00
2018-12-10T06:51:27.623Z,100.00
2018-12-10T06:56:38.558Z,100.00
2018-12-10T07:01:50.776Z,100.00
2018-12-10T07:07:01.748Z,100.00
2018-12-10T07:12:13.901Z,100.00
2018-12-10T07:17:24.765Z,100.00
2018-12-10T07:22:37.109Z,100.00
2018-12-10T07:27:48.132Z,100.00
2018-12-10T07:33:00.216Z,99.18
2018-12-10T07:38:11.149Z,99.26
2018-12-10T07:43:23.276Z,98.71
2018-12-10T07:48:34.424Z,99.02
2018-12-10T07:53:46.838Z,99.59
2018-12-10T07:58:58.679Z,100.00
2018-12-10T08:04:10.699Z,99.54
2018-12-10T08:09:21.611Z,99.62
2018-12-10T08:14:33.720Z,98.50
2018-12-10T08:19:44.971Z,97.13
2018-12-10T08:24:55.987Z,96.07
2018-12-10T08:30:07.460Z,96.35
2018-12-10T08:35:20.914Z,95.79
2018-12-10T08:40:31.762Z,95.75
2018-12-10T08:45:42.765Z,94.41
2018-12-10T08:50:53.705Z,93.92
2018-12-10T08:56:04.951Z,93.49
2018-12-10T09:01:12.367Z,93.44
2018-12-10T09:06:23.505Z,94.50
2018-12-10T09:11:34.936Z,95.29
2018-12-10T09:16:46.276Z,95.89
2018-12-10T09:21:57.253Z,95.12
2018-12-10T09:27:08.300Z,95.35
2018-12-10T09:32:19.393Z,94.18
2018-12-10T09:37:30.664Z,93.14
2018-12-10T09:42:41.761Z,93.88
2018-12-10T09:47:55.033Z,93.67
2018-12-10T09:53:02.440Z,93.07
2018-12-10T09:58:10.894Z,92.14
2018-12-10T10:03:21.923Z,91.46
2018-12-10T10:08:33.049Z,91.50
2018-12-10T10:13:45.193Z,93.06
2018-12-10T10:18:56.256Z,91.87
2018-12-10T10:24:09.342Z,93.42
2018-12-10T10:29:21.258Z,95.54
2018-12-10T10:34:33.334Z,95.50
2018-12-10T10:39:44.405Z,95.86
2018-12-10T10:44:55.388Z,94.07
2018-12-10T10:50:08.328Z,93.16
2018-12-10T10:55:19.471Z,95.12
2018-12-10T11:00:37.113Z,92.61
2018-12-10T11:05:59.341Z,92.68
2018-12-10T11:11:11.335Z,97.83
2018-12-10T11:16:23.341Z,98.47
2018-12-10T11:21:38.261Z,100.00
2018-12-10T11:26:51.266Z,100.00
2018-12-10T11:32:03.256Z,100.00
2018-12-10T11:37:14.483Z,100.00
2018-12-10T11:42:26.927Z,100.00
2018-12-10T11:47:39.096Z,100.00
2018-12-10T11:52:51.362Z,100.00
2018-12-10T11:58:04.335Z,100.00
2018-12-10T12:03:16.526Z,100.00
2018-12-10T12:08:27.740Z,100.00
2018-12-10T12:13:39.801Z,100.00
2018-12-10T12:18:50.868Z,100.00
2018-12-10T12:24:03.548Z,100.00
2018-12-10T12:29:14.705Z,100.00
2018-12-10T12:34:27.136Z,100.00
2018-12-10T12:39:40.379Z,100.00
2018-12-10T12:44:55.748Z,100.00
2018-12-10T12:50:09.329Z,100.00
2018-12-10T12:55:20.265Z,100.00
2018-12-10T13:00:32.423Z,100.00
2018-12-10T13:05:44.621Z,100.00
2018-12-10T13:10:56.662Z,100.00
2018-12-10T13:16:08.745Z,100.00
2018-12-10T13:21:20.857Z,100.00
2018-12-10T13:26:33.250Z,96.97
2018-12-10T13:31:45.457Z,95.04
2018-12-10T13:36:58.617Z,96.01
2018-12-10T13:42:12.127Z,95.70
2018-12-10T13:47:23.380Z,96.72
2018-12-10T13:52:34.417Z,96.60
2018-12-10T13:57:46.016Z,97.67
2018-12-10T14:02:59.561Z,98.01
2018-12-10T14:08:10.971Z,96.01
2018-12-10T14:13:22.074Z,95.91
2018-12-10T14:18:33.441Z,95.74
2018-12-10T14:23:45.413Z,95.60
2018-12-10T14:28:58.567Z,97.19
2018-12-10T14:34:15.155Z,96.36
2018-12-10T14:39:28.227Z,95.07
2018-12-10T14:44:39.206Z,93.94
2018-12-10T14:49:50.308Z,95.41
2018-12-10T14:55:01.383Z,93.94
2018-12-10T15:00:13.961Z,94.33
2018-12-10T15:05:25.023Z,94.21
2018-12-10T15:10:37.260Z,93.78
2018-12-10T15:15:50.269Z,93.99
2018-12-10T15:21:02.369Z,94.68
2018-12-10T15:26:14.003Z,94.46
2018-12-10T15:28:43.392Z,95.38
2018-12-10T15:33:55.425Z,96.76
2018-12-10T15:39:07.732Z,97.66
2018-12-10T15:44:19.031Z,97.92
2018-12-10T15:49:30.827Z,98.77
2018-12-10T15:54:41.965Z,99.31
2018-12-10T15:59:52.982Z,99.73
2018-12-10T16:05:04.584Z,99.19
2018-12-10T16:10:16.172Z,99.16
2018-12-10T16:15:27.449Z,98.69
2018-12-10T16:20:38.950Z,98.84
2018-12-10T16:25:50.144Z,99.05
2018-12-10T16:31:01.709Z,98.92
2018-12-10T16:36:13.515Z,98.66
2018-12-10T16:41:22.510Z,99.33
2018-12-10T16:46:33.848Z,99.01
2018-12-10T16:49:03.258Z,98.30
2018-12-10T16:54:14.600Z,97.44
2018-12-10T16:59:26.034Z,97.26
2018-12-10T17:04:37.282Z,97.65
2018-12-10T17:09:48.452Z,96.94
2018-12-10T17:14:59.715Z,96.18
2018-12-10T17:20:11.347Z,96.09
2018-12-10T17:25:22.502Z,93.92
2018-12-10T17:30:33.473Z,94.73
2018-12-10T17:35:44.660Z,96.27
2018-12-10T17:40:55.633Z,96.07
2018-12-10T17:46:07.660Z,97.03
2018-12-10T17:51:18.858Z,97.44
2018-12-10T17:56:30.163Z,97.37
2018-12-10T18:01:41.240Z,98.35
2018-12-10T18:06:52.994Z,98.31
2018-12-10T18:12:05.103Z,99.42
2018-12-10T18:17:16.769Z,99.00
2018-12-10T18:22:28.824Z,99.37
2018-12-10T18:27:41.144Z,99.65
2018-12-10T18:32:55.340Z,99.09
2018-12-10T18:38:06.227Z,98.76
2018-12-10T18:43:18.628Z,98.66
2018-12-10T18:48:32.844Z,98.94
2018-12-10T18:51:02.677Z,98.52
2018-12-10T18:56:14.388Z,98.47
2018-12-10T19:01:25.572Z,98.75
2018-12-10T19:06:36.605Z,99.48
2018-12-10T19:11:49.621Z,99.39
2018-12-10T19:17:00.548Z,98.93
2018-12-10T19:22:11.562Z,98.82
2018-12-10T19:27:22.908Z,97.83
2018-12-10T19:32:34.365Z,98.24
2018-12-10T19:37:45.513Z,97.50
2018-12-10T19:42:57.747Z,97.98
2018-12-10T19:48:08.647Z,98.30
2018-12-10T19:53:38.928Z,98.01
2018-12-10T19:58:50.534Z,97.64
2018-12-10T20:04:03.678Z,97.72
2018-12-10T20:09:22.638Z,96.89
2018-12-10T20:14:38.424Z,97.49
2018-12-10T20:19:50.528Z,96.75
2018-12-10T20:25:02.051Z,96.92
2018-12-10T20:30:14.438Z,95.77
2018-12-10T20:35:25.644Z,96.67
2018-12-10T20:40:38.134Z,96.01
2018-12-10T20:45:51.517Z,96.35
2018-12-10T20:51:03.888Z,96.97
2018-12-10T20:56:15.178Z,97.11
2018-12-10T21:01:28.344Z,97.07
2018-12-10T21:06:41.624Z,97.00
2018-12-10T21:11:54.148Z,97.26
2018-12-10T21:17:05.148Z,97.36
2018-12-10T21:22:17.598Z,97.54
2018-12-10T21:27:30.899Z,97.56
2018-12-10T21:32:43.808Z,97.10
2018-12-10T21:37:55.257Z,96.99
2018-12-10T21:43:04.040Z,96.93
2018-12-10T21:48:15.180Z,97.05
2018-12-10T21:50:44.639Z,96.79
2018-12-10T22:01:40.269Z,96.25
2018-12-10T22:06:51.502Z,96.60
2018-12-10T22:12:03.484Z,95.78
2018-12-10T22:17:14.776Z,96.33
2018-12-10T22:22:28.559Z,97.02
2018-12-10T22:27:39.892Z,96.46
2018-12-10T22:32:52.530Z,97.72
2018-12-10T22:38:06.761Z,98.06
2018-12-10T22:43:19.289Z,97.76
2018-12-10T22:48:30.246Z,97.91
2018-12-10T22:53:42.315Z,98.36
2018-12-10T22:58:53.337Z,98.73
2018-12-10T23:04:05.713Z,98.77
2018-12-10T23:09:16.758Z,98.42
2018-12-10T23:14:28.805Z,98.03
2018-12-10T23:19:40.277Z,98.06
2018-12-10T23:22:09.805Z,98.09
2018-12-10T23:27:20.880Z,96.91
2018-12-10T23:32:32.403Z,96.96
2018-12-10T23:37:43.518Z,97.39
2018-12-10T23:43:00.799Z,96.73
2018-12-10T23:48:11.782Z,96.32
2018-12-10T23:53:22.937Z,96.81
2018-12-10T23:58:35.995Z,96.11
